createdAt,value
2022-12-17T00:01:41.795Z,92.65
2022-12-17T00:07:17.690Z,89.90
2022-12-17T00:12:49.553Z,92.10
2022-12-17T00:15:35.286Z,87.88
2022-12-17T00:18:21.600Z,91.13
2022-12-17T00:21:11.334Z,99.55
2022-12-17T00:23:56.611Z,84.63
2022-12-17T00:26:42.339Z,83.35
2022-12-17T00:29:29.094Z,80.13
2022-12-17T00:32:14.532Z,77.70
2022-12-17T00:37:44.702Z,100.68
2022-12-17T00:43:19.230Z,89.05
2022-12-17T00:46:06.041Z,91.70
2022-12-17T00:48:51.728Z,108.07
2022-12-17T00:51:37.572Z,75.65
2022-12-17T00:54:23.630Z,97.22
2022-12-17T00:57:09.006Z,114.07
2022-12-17T00:59:55.275Z,118.43
2022-12-17T01:02:43.949Z,114.00
2022-12-17T01:05:29.942Z,131.75
2022-12-17T01:08:15.781Z,133.93
2022-12-17T01:11:01.742Z,121.20
2022-12-17T01:13:47.307Z,107.68
2022-12-17T01:16:33.769Z,107.93
2022-12-17T01:19:20.530Z,125.25
2022-12-17T01:22:05.885Z,136.80
2022-12-17T01:27:37.247Z,140.48
2022-12-17T01:33:08.001Z,171.10
2022-12-17T01:38:39.970Z,155.05
2022-12-17T01:41:25.006Z,139.40
2022-12-17T01:44:10.347Z,143.20
2022-12-17T01:46:59.980Z,143.60
2022-12-17T01:49:46.708Z,139.98
2022-12-17T01:52:35.509Z,128.57
2022-12-17T01:55:22.784Z,167.75
2022-12-17T01:58:08.480Z,104.00
2022-12-17T02:00:54.231Z,141.13
2022-12-17T02:03:39.588Z,110.38
2022-12-17T02:09:24.443Z,125.85
2022-12-17T02:12:32.870Z,123.90
2022-12-17T02:15:24.676Z,84.35
2022-12-17T02:18:14.932Z,89.47
2022-12-17T02:21:05.386Z,88.00
2022-12-17T02:24:00.960Z,97.32
2022-12-17T02:26:54.506Z,95.80
2022-12-17T02:29:42.536Z,112.60
2022-12-17T02:32:30.453Z,122.25
2022-12-17T02:35:16.841Z,102.03
2022-12-17T02:38:05.432Z,99.10
2022-12-17T02:40:53.445Z,90.18
2022-12-17T02:43:45.073Z,97.93
2022-12-17T02:46:31.780Z,96.60
2022-12-17T02:49:17.139Z,102.03
2022-12-17T02:54:48.592Z,90.40
2022-12-17T02:57:33.847Z,95.70
2022-12-17T03:00:20.925Z,99.22
2022-12-17T03:03:05.784Z,98.78
2022-12-17T03:05:51.070Z,93.28
2022-12-17T03:08:36.370Z,102.68
2022-12-17T03:11:21.807Z,116.93
2022-12-17T03:16:53.854Z,91.43
2022-12-17T03:19:39.571Z,110.85
2022-12-17T03:22:24.926Z,80.60
2022-12-17T03:27:55.371Z,100.57
2022-12-17T03:30:43.248Z,107.10
2022-12-17T03:33:34.313Z,101.28
2022-12-17T03:36:19.829Z,121.47
2022-12-17T03:39:05.032Z,109.28
2022-12-17T03:41:50.300Z,117.03
2022-12-17T03:44:35.676Z,111.85
2022-12-17T03:50:07.473Z,84.65
2022-12-17T03:52:52.881Z,81.28
2022-12-17T03:58:23.259Z,83.85
2022-12-17T04:03:53.834Z,77.85
2022-12-17T04:06:40.373Z,87.13
2022-12-17T04:09:25.529Z,83.00
2022-12-17T04:12:10.834Z,77.18
2022-12-17T04:14:56.410Z,76.22
2022-12-17T04:20:27.073Z,82.35
2022-12-17T04:23:13.992Z,80.07
2022-12-17T04:25:59.548Z,102.80
2022-12-17T04:28:44.900Z,90.30
2022-12-17T04:34:15.660Z,83.82
2022-12-17T04:37:01.070Z,57.17
2022-12-17T04:42:35.474Z,51.72
2022-12-17T04:45:20.962Z,108.65
2022-12-17T04:48:06.241Z,98.28
2022-12-17T04:50:51.619Z,56.72
2022-12-17T04:56:24.724Z,61.53
2022-12-17T04:59:10.084Z,58.58
2022-12-17T05:04:40.660Z,38.72
2022-12-17T05:10:10.832Z,33.58
2022-12-17T05:12:57.637Z,30.70
2022-12-17T05:15:43.257Z,32.42
2022-12-17T05:18:38.942Z,29.77
2022-12-17T05:21:24.473Z,26.45
2022-12-17T05:24:10.219Z,29.65
2022-12-17T05:26:55.561Z,30.00
2022-12-17T05:29:43.691Z,33.30
2022-12-17T05:32:29.044Z,30.45
2022-12-17T05:37:58.695Z,35.92
2022-12-17T05:40:44.274Z,38.08
2022-12-17T05:43:30.764Z,33.67
2022-12-17T05:46:17.913Z,30.25
2022-12-17T05:49:03.861Z,30.55
2022-12-17T05:51:49.308Z,29.40
2022-12-17T05:54:35.032Z,26.77
2022-12-17T05:57:20.602Z,26.50
2022-12-17T06:00:05.822Z,21.98
2022-12-17T06:02:52.646Z,27.70
2022-12-17T06:05:37.847Z,31.15
2022-12-17T06:08:24.674Z,22.63
2022-12-17T06:11:10.175Z,25.10
2022-12-17T06:13:55.593Z,28.02
2022-12-17T06:19:27.419Z,43.30
2022-12-17T06:22:12.817Z,33.15
2022-12-17T06:27:39.488Z,39.55
2022-12-17T06:30:25.777Z,51.67
2022-12-17T06:33:11.176Z,44.90
2022-12-17T06:38:48.542Z,31.27
2022-12-17T06:44:19.395Z,56.28
2022-12-17T06:47:04.569Z,32.22
2022-12-17T06:49:50.096Z,33.75
2022-12-17T06:52:37.109Z,31.35
2022-12-17T06:55:23.015Z,43.53
2022-12-17T06:58:14.276Z,49.92
2022-12-17T07:00:59.592Z,73.80
2022-12-17T07:06:30.066Z,73.70
2022-12-17T07:12:02.478Z,64.78
2022-12-17T07:14:47.890Z,99.53
2022-12-17T07:20:18.411Z,71.22
2022-12-17T07:23:03.821Z,89.13
2022-12-17T07:25:50.811Z,124.55
2022-12-17T07:28:36.512Z,75.82
2022-12-17T07:31:21.925Z,69.03
2022-12-17T07:34:03.727Z,63.92
2022-12-17T07:36:49.080Z,59.97
2022-12-17T07:42:20.922Z,55.42
2022-12-17T07:45:06.346Z,48.92
2022-12-17T07:50:36.546Z,47.17
2022-12-17T07:53:23.336Z,57.05
2022-12-17T07:56:09.989Z,47.85
2022-12-17T07:58:56.619Z,56.05
2022-12-17T08:01:42.035Z,50.30
2022-12-17T08:04:27.823Z,56.15
2022-12-17T08:07:14.243Z,60.05
2022-12-17T08:10:00.205Z,48.67
2022-12-17T08:12:45.452Z,56.47
2022-12-17T08:15:32.434Z,58.13
2022-12-17T08:18:24.569Z,51.40
2022-12-17T08:21:12.313Z,50.97
2022-12-17T08:23:57.488Z,51.30
2022-12-17T08:26:47.514Z,44.13
2022-12-17T08:29:33.382Z,38.65
2022-12-17T08:35:11.667Z,37.35
2022-12-17T08:37:57.013Z,42.08
2022-12-17T08:43:30.618Z,37.03
2022-12-17T08:46:16.547Z,35.83
2022-12-17T08:49:03.300Z,31.95
2022-12-17T08:51:48.937Z,31.55
2022-12-17T08:54:34.502Z,27.73
2022-12-17T08:57:30.664Z,21.83
2022-12-17T09:00:17.014Z,23.35
2022-12-17T09:03:03.005Z,17.02
2022-12-17T09:05:50.061Z,16.13
2022-12-17T09:08:35.504Z,15.35
2022-12-17T09:11:20.999Z,11.55
2022-12-17T09:14:06.208Z,11.48
2022-12-17T09:16:51.555Z,11.40
2022-12-17T09:22:28.878Z,9.77
2022-12-17T09:25:14.462Z,9.93
2022-12-17T09:27:59.550Z,15.55
2022-12-17T09:30:44.900Z,9.35
2022-12-17T09:33:33.777Z,8.95
2022-12-17T09:36:22.169Z,7.93
2022-12-17T09:39:09.160Z,8.65
2022-12-17T09:42:04.848Z,8.48
2022-12-17T09:47:52.521Z,4.25
2022-12-17T09:50:38.843Z,4.35
2022-12-17T09:53:38.878Z,2.72
2022-12-17T09:56:29.311Z,3.53
2022-12-17T09:59:15.131Z,3.08
2022-12-17T10:02:01.210Z,2.22
2022-12-17T10:04:53.532Z,4.22
2022-12-17T10:07:42.036Z,2.55
2022-12-17T10:10:35.990Z,2.22
2022-12-17T10:13:29.031Z,2.67
2022-12-17T10:16:16.881Z,3.70
2022-12-17T10:19:02.824Z,2.20
2022-12-17T10:21:48.998Z,2.47
2022-12-17T10:24:34.752Z,2.95
2022-12-17T10:27:27.659Z,1.90
2022-12-17T10:30:14.395Z,3.42
2022-12-17T10:33:00.284Z,2.95
2022-12-17T10:35:53.319Z,2.83
2022-12-17T10:38:41.362Z,6.25
2022-12-17T10:41:39.711Z,3.47
2022-12-17T10:44:41.251Z,6.45
2022-12-17T10:47:32.687Z,2.80
2022-12-17T10:50:22.620Z,4.30
2022-12-17T10:53:08.021Z,3.92
2022-12-17T10:58:41.951Z,6.20
2022-12-17T11:01:31.368Z,3.03
2022-12-17T11:04:18.057Z,4.78
2022-12-17T11:07:06.379Z,10.25
2022-12-17T11:10:03.751Z,2.72
2022-12-17T11:12:57.178Z,2.67
2022-12-17T11:15:50.628Z,4.72
2022-12-17T11:18:40.783Z,20.13
2022-12-17T11:21:30.851Z,2.78
2022-12-17T11:24:22.464Z,3.50
2022-12-17T11:27:12.196Z,6.78
2022-12-17T11:29:57.860Z,4.35
2022-12-17T11:33:07.872Z,4.05
2022-12-17T11:36:03.794Z,5.45
2022-12-17T11:38:54.557Z,3.28
2022-12-17T11:41:52.678Z,11.27
2022-12-17T11:44:53.086Z,8.48
2022-12-17T11:47:57.411Z,5.22
2022-12-17T11:53:45.932Z,12.55
2022-12-17T11:56:41.575Z,3.67
2022-12-17T11:59:34.615Z,4.20
2022-12-17T12:02:35.674Z,3.85
2022-12-17T12:05:36.007Z,2.75
2022-12-17T12:08:30.525Z,6.05
2022-12-17T12:11:29.778Z,1.80
2022-12-17T12:14:28.275Z,3.65
2022-12-17T12:17:33.200Z,24.27
2022-12-17T12:20:23.628Z,3.97
2022-12-17T12:23:22.235Z,2.13
2022-12-17T12:26:18.745Z,1.85
2022-12-17T12:29:11.594Z,6.70
2022-12-17T12:32:17.865Z,4.18
2022-12-17T12:35:04.407Z,5.72
2022-12-17T12:37:51.017Z,10.43
2022-12-17T12:40:47.108Z,6.60
2022-12-17T12:43:39.600Z,5.28
2022-12-17T12:46:33.235Z,7.07
2022-12-17T12:49:38.855Z,4.55
2022-12-17T12:52:21.027Z,5.07
2022-12-17T12:55:11.717Z,5.32
2022-12-17T12:58:00.463Z,2.60
2022-12-17T13:00:50.271Z,2.78
2022-12-17T13:03:44.784Z,3.15
2022-12-17T13:06:16.087Z,3.85
2022-12-17T13:08:44.008Z,2.03
2022-12-17T13:11:28.369Z,6.18
2022-12-17T13:14:02.568Z,1.80
2022-12-17T13:16:39.150Z,4.47
2022-12-17T13:19:21.904Z,1.70
2022-12-17T13:21:51.414Z,3.22
2022-12-17T13:24:25.985Z,3.85
2022-12-17T13:26:54.477Z,2.30
2022-12-17T13:29:29.859Z,8.13
2022-12-17T13:32:22.113Z,3.83
2022-12-17T13:35:03.304Z,3.63
2022-12-17T13:37:45.059Z,10.00
2022-12-17T13:40:30.247Z,5.80
2022-12-17T13:42:58.282Z,3.58
2022-12-17T13:45:28.534Z,4.05
2022-12-17T13:47:57.895Z,4.25
2022-12-17T13:50:36.478Z,4.28
2022-12-17T13:53:13.424Z,3.38
2022-12-17T13:55:42.024Z,3.72
2022-12-17T13:58:22.555Z,3.55
2022-12-17T14:00:50.575Z,6.15
2022-12-17T14:03:43.074Z,4.63
2022-12-17T14:06:13.043Z,6.32
2022-12-17T14:08:43.411Z,6.93
2022-12-17T14:11:30.627Z,11.40
2022-12-17T14:13:58.930Z,8.55
2022-12-17T14:16:26.902Z,9.27
2022-12-17T14:18:57.208Z,11.52
2022-12-17T14:21:27.849Z,5.78
2022-12-17T14:23:58.706Z,7.78
2022-12-17T14:26:26.709Z,6.97
2022-12-17T14:28:56.379Z,4.97
2022-12-17T14:31:28.687Z,6.25
2022-12-17T14:34:07.654Z,5.60
2022-12-17T14:36:38.482Z,4.70
2022-12-17T14:39:19.168Z,4.85
2022-12-17T14:42:04.580Z,4.38
2022-12-17T14:47:14.913Z,7.80
2022-12-17T14:49:55.753Z,5.38
2022-12-17T14:52:28.980Z,6.57
2022-12-17T14:54:58.364Z,4.32
2022-12-17T14:57:26.451Z,4.80
2022-12-17T14:59:54.468Z,7.72
2022-12-17T15:02:26.954Z,5.57
2022-12-17T15:04:57.814Z,8.23
2022-12-17T15:07:27.331Z,5.82
2022-12-17T15:09:56.365Z,7.50
2022-12-17T15:12:26.617Z,8.82
2022-12-17T15:14:54.657Z,7.43
2022-12-17T15:17:22.668Z,6.75
2022-12-17T15:19:55.950Z,6.35
2022-12-17T15:22:24.845Z,6.18
2022-12-17T15:24:52.893Z,8.65
2022-12-17T15:27:20.837Z,6.20
2022-12-17T15:29:50.217Z,6.97
2022-12-17T15:32:20.332Z,8.75
2022-12-17T15:34:48.319Z,6.55
2022-12-17T15:37:21.077Z,5.32
2022-12-17T15:39:52.179Z,5.68
2022-12-17T15:42:37.365Z,9.25
2022-12-17T15:45:07.927Z,9.35
2022-12-17T15:47:35.835Z,8.45
2022-12-17T15:50:04.176Z,9.50
2022-12-17T15:52:32.703Z,7.10
2022-12-17T15:55:00.717Z,8.93
2022-12-17T15:57:28.605Z,7.85
2022-12-17T15:59:56.517Z,7.32
2022-12-17T16:02:26.072Z,9.38
2022-12-17T16:04:54.120Z,7.70
2022-12-17T16:07:22.140Z,8.10
2022-12-17T16:09:50.045Z,6.68
2022-12-17T16:12:18.011Z,9.07
2022-12-17T16:14:45.977Z,7.75
2022-12-17T16:17:13.851Z,7.68
2022-12-17T16:19:43.169Z,9.13
2022-12-17T16:22:11.060Z,10.80
2022-12-17T16:24:39.011Z,9.23
2022-12-17T16:27:06.863Z,9.50
2022-12-17T16:29:35.027Z,10.63
2022-12-17T16:32:03.085Z,8.75
2022-12-17T16:34:31.051Z,7.82
2022-12-17T16:37:01.623Z,7.05
2022-12-17T16:39:29.587Z,8.48
2022-12-17T16:41:57.622Z,12.95
2022-12-17T16:44:25.814Z,11.35
2022-12-17T16:46:53.783Z,15.48
2022-12-17T16:49:24.542Z,13.90
2022-12-17T16:51:54.346Z,15.50
2022-12-17T16:54:26.216Z,16.10
2022-12-17T16:56:54.985Z,16.08
2022-12-17T16:59:23.537Z,12.52
2022-12-17T17:01:52.583Z,13.77
2022-12-17T17:04:23.372Z,12.32
2022-12-17T17:06:52.986Z,14.85
2022-12-17T17:09:21.905Z,13.32
2022-12-17T17:11:52.512Z,13.00
2022-12-17T17:14:21.197Z,8.50
2022-12-17T17:16:49.115Z,14.35
2022-12-17T17:19:17.193Z,20.05
2022-12-17T17:21:50.649Z,13.50
2022-12-17T17:24:22.136Z,9.43
2022-12-17T17:26:52.828Z,7.78
2022-12-17T17:29:20.982Z,7.72
2022-12-17T17:34:38.498Z,8.02
2022-12-17T17:37:06.461Z,8.95
2022-12-17T17:39:34.784Z,8.23
2022-12-17T17:42:04.354Z,13.90
2022-12-17T17:44:32.261Z,8.95
2022-12-17T17:47:00.387Z,10.23
2022-12-17T17:49:28.942Z,9.60
2022-12-17T17:52:12.558Z,10.60
2022-12-17T17:54:41.015Z,9.57
2022-12-17T17:57:10.884Z,11.02
2022-12-17T17:59:39.714Z,8.77
2022-12-17T18:02:09.005Z,10.05
2022-12-17T18:04:37.069Z,9.55
2022-12-17T18:09:53.069Z,10.80
2022-12-17T18:12:39.774Z,9.80
2022-12-17T18:15:17.690Z,10.38
2022-12-17T18:17:47.415Z,10.13
2022-12-17T18:20:15.460Z,11.20
2022-12-17T18:22:45.781Z,17.17
2022-12-17T18:25:14.016Z,23.60
2022-12-17T18:27:43.390Z,27.65
2022-12-17T18:30:12.035Z,29.75
2022-12-17T18:32:40.051Z,32.58
2022-12-17T18:35:09.154Z,36.00
2022-12-17T18:37:37.569Z,36.20
2022-12-17T18:40:06.760Z,31.35
2022-12-17T18:43:03.634Z,36.92
2022-12-17T18:45:38.132Z,29.38
2022-12-17T18:48:06.662Z,31.15
2022-12-17T18:50:38.768Z,30.25
2022-12-17T18:53:06.720Z,24.25
2022-12-17T18:55:34.670Z,24.50
2022-12-17T18:58:02.820Z,25.83
2022-12-17T19:00:32.321Z,19.70
2022-12-17T19:03:00.423Z,21.48
2022-12-17T19:05:28.554Z,21.40
2022-12-17T19:07:56.459Z,20.27
2022-12-17T19:10:24.481Z,24.05
2022-12-17T19:12:52.477Z,21.85
2022-12-17T19:15:20.401Z,22.15
2022-12-17T19:17:50.949Z,25.80
2022-12-17T19:20:20.150Z,20.77
2022-12-17T19:22:48.034Z,22.65
2022-12-17T19:25:16.046Z,23.05
2022-12-17T19:27:44.010Z,22.67
2022-12-17T19:30:12.710Z,22.92
2022-12-17T19:32:40.831Z,30.25
2022-12-17T19:35:10.551Z,36.22
2022-12-17T19:37:38.532Z,39.00
2022-12-17T19:40:07.536Z,43.25
2022-12-17T19:42:37.714Z,40.92
2022-12-17T19:45:06.630Z,38.92
2022-12-17T19:47:34.664Z,41.42
2022-12-17T19:50:02.547Z,42.47
2022-12-17T19:52:31.795Z,40.67
2022-12-17T19:54:59.744Z,39.60
2022-12-17T19:57:27.693Z,38.92
2022-12-17T19:59:55.595Z,35.53
2022-12-17T20:02:26.031Z,40.22
2022-12-17T20:04:57.798Z,42.10
2022-12-17T20:07:25.768Z,35.90
2022-12-17T20:09:55.037Z,43.58
2022-12-17T20:12:23.049Z,41.75
2022-12-17T20:14:51.216Z,39.72
2022-12-17T20:17:20.361Z,43.70
2022-12-17T20:19:49.518Z,43.55
2022-12-17T20:22:17.441Z,42.65
2022-12-17T20:24:45.435Z,41.92
2022-12-17T20:27:15.026Z,41.85
2022-12-17T20:29:43.029Z,48.10
2022-12-17T20:32:11.061Z,48.42
2022-12-17T20:34:39.095Z,47.88
2022-12-17T20:37:06.972Z,48.42
2022-12-17T20:39:35.885Z,41.63
2022-12-17T20:42:03.814Z,47.17
2022-12-17T20:44:33.282Z,48.90
2022-12-17T20:47:01.693Z,50.78
2022-12-17T20:49:29.638Z,61.28
2022-12-17T20:51:57.625Z,54.13
2022-12-17T20:54:25.543Z,47.85
2022-12-17T20:56:53.501Z,44.30
2022-12-17T20:59:21.755Z,49.38
2022-12-17T21:01:55.851Z,42.03
2022-12-17T21:04:24.936Z,46.78
2022-12-17T21:06:53.184Z,51.35
2022-12-17T21:09:22.606Z,42.47
2022-12-17T21:11:50.610Z,45.53
2022-12-17T21:14:20.243Z,39.97
2022-12-17T21:16:50.967Z,41.25
2022-12-17T21:19:20.948Z,35.05
2022-12-17T21:21:49.095Z,29.60
2022-12-17T21:24:17.266Z,27.55
2022-12-17T21:26:47.077Z,27.75
2022-12-17T21:29:15.857Z,25.33
2022-12-17T21:31:46.556Z,26.50
2022-12-17T21:34:17.486Z,28.95
2022-12-17T21:36:45.704Z,24.52
2022-12-17T21:39:14.724Z,31.45
2022-12-17T21:42:08.068Z,32.72
2022-12-17T21:44:36.214Z,34.10
2022-12-17T21:47:04.425Z,32.38
2022-12-17T21:49:33.870Z,40.95
2022-12-17T21:52:02.924Z,35.50
2022-12-17T21:54:30.974Z,38.45
2022-12-17T21:56:58.875Z,37.35
2022-12-17T21:59:26.857Z,50.92
2022-12-17T22:01:57.392Z,51.30
2022-12-17T22:04:26.789Z,41.10
2022-12-17T22:06:58.661Z,43.85
2022-12-17T22:10:00.307Z,38.72
2022-12-17T22:12:44.046Z,34.88
2022-12-17T22:15:12.224Z,37.00
2022-12-17T22:17:41.724Z,41.33
2022-12-17T22:20:11.006Z,36.75
2022-12-17T22:22:40.397Z,34.90
2022-12-17T22:25:11.409Z,35.55
2022-12-17T22:27:40.473Z,33.70
2022-12-17T22:30:31.783Z,37.78
2022-12-17T22:33:09.494Z,37.92
2022-12-17T22:37:38.711Z,34.58
2022-12-17T22:43:11.651Z,36.35
2022-12-17T22:44:48.899Z,38.55
2022-12-17T22:44:51.479Z,39.78
2022-12-17T22:47:20.826Z,35.40
2022-12-17T22:49:48.822Z,31.90
2022-12-17T22:52:18.229Z,38.65
2022-12-17T22:54:49.422Z,34.13
2022-12-17T22:57:35.402Z,28.80
2022-12-17T23:00:08.517Z,33.30
2022-12-17T23:02:37.941Z,34.90
2022-12-17T23:05:06.526Z,30.42
2022-12-17T23:07:34.497Z,32.67
2022-12-17T23:10:04.004Z,25.00
2022-12-17T23:12:49.261Z,29.65
2022-12-17T23:15:17.319Z,28.58
2022-12-17T23:17:45.381Z,43.72
2022-12-17T23:20:13.567Z,38.10
2022-12-17T23:22:41.600Z,38.95
2022-12-17T23:25:12.502Z,32.83
2022-12-17T23:27:45.935Z,30.55
2022-12-17T23:30:16.133Z,35.17
2022-12-17T23:32:44.895Z,30.05
2022-12-17T23:35:14.144Z,33.15
2022-12-17T23:37:42.661Z,31.58
2022-12-17T23:40:15.459Z,32.10
2022-12-17T23:42:43.466Z,29.20
2022-12-17T23:45:12.165Z,29.00
2022-12-17T23:47:41.046Z,29.23
2022-12-17T23:50:11.660Z,43.28
2022-12-17T23:52:40.444Z,45.85
2022-12-17T23:55:09.119Z,45.05
2022-12-17T23:57:38.961Z,45.13
